• Join FlightAware (Why Join?)
  • Login
  • US Flag 
08:38AM EDT


 

Airport Tracker/Info


-or-


 

Live Flight TrackerFlight Track Log ✈ AWE1454 ✈ 30-Apr-2013 ✈ KPHL - KMHT

Flight Track Log - Related Links

Times and Time Zones

All times are in EDT time to prevent confusion due to time zone crossing. See the AWE1454 flight status page for this flight to view local times or setup timezone preferences in your user account.

Time Position Orientation Groundspeed Altitude Reporting Facility
EDT Latitude Longitude Course Direction KTS MPH feet Rate Location/Type
04:22PM 39.8833 -75.2167 37° Northeast 138 159 800  Level Philadelphia TRACON
04:23PM 39.8667 -75.1667 113° Southeast 200 230 1,900 1,620 Climbing Philadelphia TRACON
04:24PM 39.8072 -74.8191 105° East  Level FlightAware Approximate
04:24PM 39.8667 -75.1000 90° East 228 262 3,800  Level Philadelphia TRACON
04:25PM 39.7960 -74.6874 37° Northeast  Level FlightAware Approximate
04:26PM 39.8836 -74.5998 37° Northeast  Level FlightAware Approximate
04:26PM 39.8314 -74.8797 102° East 280 322 9,700  Level New York Center
04:27PM 39.9747 -74.5253 37° Northeast  Level FlightAware Approximate
04:27PM 39.8161 -74.7842 102° East 287 330 10,700  Level New York Center
04:28PM 39.8489 -74.6753 69° East 298 343 12,800 2,040 Climbing New York Center
04:29PM 39.9244 -74.5956 39° Northeast 298 343 14,800 1,920 Climbing New York Center
04:30PM 40.0042 -74.5158 37° Northeast 326 375 16,700 1,740 Climbing New York Center
04:31PM 40.0944 -74.4231 38° Northeast 354 407 18,400 1,440 Climbing New York Center
04:32PM 40.1678 -74.3456 39° Northeast 370 426 19,600 1,260 Climbing New York Center
04:33PM 40.2558 -74.2603 36° Northeast 381 438 21,000 1,500 Climbing New York Center
04:34PM 40.3439 -74.1722 37° Northeast 386 444 22,700 1,380 Climbing New York Center
04:35PM 40.4339 -74.0839 37° Northeast 393 452 23,900 1,140 Climbing New York Center
04:37PM 40.6236 -73.9111 35° Northeast 412 474 26,200 1,080 Climbing Boston Center
04:38PM 40.7578 -73.8456 20° North 417 480 27,300 900 Climbing Boston Center
04:39PM 40.8708 -73.7906 20° North 423 487 28,200 960 Climbing Boston Center
04:40PM 40.9842 -73.7322 21° North 428 493 29,300 960 Climbing Boston Center
04:41PM 41.0972 -73.6794 19° North 433 498 30,200 1,020 Climbing Boston Center
04:42PM 41.2161 -73.6792 360° North 418 481 31,400 1,020 Climbing Boston Center
04:43PM 41.3328 -73.6869 357° North 418 481 32,300 780 Climbing Boston Center
04:44PM 41.4514 -73.6947 357° North 418 481 33,000 300 Climbing Boston Center
04:45PM 41.5742 -73.7028 357° North 423 487 33,000  Level Boston Center
04:46PM 41.6931 -73.7133 356° North 428 493 33,000 -60 Level Boston Center
04:47PM 41.8097 -73.7044 North 428 493 32,900 -960 Descending Boston Center
04:48PM 41.9047 -73.6033 38° Northeast 406 467 31,100 -1,620 Descending Boston Center
04:49PM 42.0058 -73.4850 41° Northeast 415 478 29,700 -1,800 Descending Boston Center
04:50PM 42.0758 -73.3519 55° Northeast 428 493 27,600 -1,980 Descending Boston Center
04:51PM 42.1536 -73.2439 46° Northeast 420 483 25,800 -1,800 Descending Boston Center
04:52PM 42.2317 -73.1297 47° Northeast 415 478 24,000 -1,800 Descending Boston Center
04:53PM 42.3072 -73.0183 47° Northeast 405 466 22,300 -1,800 Descending Boston Center
04:54PM 42.3828 -72.8983 50° Northeast 411 473 20,400 -1,680 Descending Boston Center
04:55PM 42.4603 -72.7892 46° Northeast 387 445 19,000 -780 Descending Boston Center
04:56PM 42.5272 -72.6822 50° Northeast 371 427 18,900 -960 Descending Boston Center
04:57PM 42.5753 -72.5586 62° Northeast 366 421 17,100  Descending Boston Center
04:58PM 42.6233 -72.4372 62° Northeast 366 421 19,000 -1,920 Climbing Boston Center
04:59PM 42.6714 -72.3158 62° Northeast 361 415 13,300 -3,840 Descending Boston Center
05:00PM 42.7086 -72.2142 63° Northeast 341 392 11,400 -1,500 Descending Boston Center
05:01PM 42.7542 -72.0981 62° Northeast 328 377 10,300 -1,200 Descending Boston Center
05:02PM 42.7914 -72.0186 57° Northeast 294 338 9,000 -960 Descending Boston Center
05:03PM 42.8369 -71.9164 59° Northeast 277 319 8,400 -1,080 Descending Boston Center
05:04PM 42.8719 -71.8367 59° Northeast 272 313 6,900 -1,680 Descending Boston Center
05:05PM 42.9278 -71.7539 47° Northeast 267 307 5,100 -1,620 Descending Boston Center
05:06PM 42.9772 -71.6939 42° Northeast 261 300 3,700 -1,380 Descending Boston Center
05:07PM 43.0353 -71.6219 42° Northeast 261 300 2,400 -840 Descending Boston Center
05:08PM 43.0661 -71.5675 52° Northeast 220 253 2,100 -300 Descending Boston Center